sensor_id;sensor_type;location;lat;lon;timestamp;temperature;humidity
2200;DHT22;1106;48.762;9.168;2022-08-19T00:02:11;22.50;72.50
2200;DHT22;1106;48.762;9.168;2022-08-19T00:04:37;22.40;72.60
2200;DHT22;1106;48.762;9.168;2022-08-19T00:07:06;22.40;72.70
2200;DHT22;1106;48.762;9.168;2022-08-19T00:09:33;22.40;72.60
2200;DHT22;1106;48.762;9.168;2022-08-19T00:12:00;22.40;72.60
2200;DHT22;1106;48.762;9.168;2022-08-19T00:14:29;22.50;72.50
2200;DHT22;1106;48.762;9.168;2022-08-19T00:16:56;22.50;72.40
2200;DHT22;1106;48.762;9.168;2022-08-19T00:19:23;22.50;72.30
2200;DHT22;1106;48.762;9.168;2022-08-19T00:21:51;22.60;72.20
2200;DHT22;1106;48.762;9.168;2022-08-19T00:24:19;22.40;72.60
2200;DHT22;1106;48.762;9.168;2022-08-19T00:26:46;22.30;73.00
2200;DHT22;1106;48.762;9.168;2022-08-19T00:29:15;22.30;72.90
2200;DHT22;1106;48.762;9.168;2022-08-19T00:31:44;22.40;72.80
2200;DHT22;1106;48.762;9.168;2022-08-19T00:34:12;22.40;72.80
2200;DHT22;1106;48.762;9.168;2022-08-19T00:36:40;22.40;72.70
2200;DHT22;1106;48.762;9.168;2022-08-19T00:39:08;22.40;72.60
2200;DHT22;1106;48.762;9.168;2022-08-19T00:41:35;22.30;72.80
2200;DHT22;1106;48.762;9.168;2022-08-19T00:44:05;22.30;72.90
2200;DHT22;1106;48.762;9.168;2022-08-19T00:46:33;22.30;73.00
2200;DHT22;1106;48.762;9.168;2022-08-19T00:49:09;22.30;73.00
2200;DHT22;1106;48.762;9.168;2022-08-19T00:51:38;22.30;73.00
2200;DHT22;1106;48.762;9.168;2022-08-19T00:54:05;22.30;73.20
2200;DHT22;1106;48.762;9.168;2022-08-19T00:56:32;22.40;72.90
2200;DHT22;1106;48.762;9.168;2022-08-19T00:59:01;22.40;72.90
2200;DHT22;1106;48.762;9.168;2022-08-19T01:01:28;22.30;73.00
2200;DHT22;1106;48.762;9.168;2022-08-19T01:03:55;22.30;73.30
2200;DHT22;1106;48.762;9.168;2022-08-19T01:06:23;22.30;73.40
2200;DHT22;1106;48.762;9.168;2022-08-19T01:08:51;22.30;73.30
2200;DHT22;1106;48.762;9.168;2022-08-19T01:11:17;22.40;73.10
2200;DHT22;1106;48.762;9.168;2022-08-19T01:13:45;22.30;73.00
2200;DHT22;1106;48.762;9.168;2022-08-19T01:16:13;22.30;73.10
2200;DHT22;1106;48.762;9.168;2022-08-19T01:18:42;22.40;73.10
2200;DHT22;1106;48.762;9.168;2022-08-19T01:21:12;22.30;73.20
2200;DHT22;1106;48.762;9.168;2022-08-19T01:23:45;22.30;73.30
2200;DHT22;1106;48.762;9.168;2022-08-19T01:26:15;22.30;73.30
2200;DHT22;1106;48.762;9.168;2022-08-19T01:28:43;22.30;73.20
2200;DHT22;1106;48.762;9.168;2022-08-19T01:31:17;22.30;73.20
2200;DHT22;1106;48.762;9.168;2022-08-19T01:33:46;22.30;73.20
2200;DHT22;1106;48.762;9.168;2022-08-19T01:36:20;22.30;73.40
2200;DHT22;1106;48.762;9.168;2022-08-19T01:38:49;22.40;73.20
2200;DHT22;1106;48.762;9.168;2022-08-19T01:41:17;22.40;73.00
2200;DHT22;1106;48.762;9.168;2022-08-19T01:43:45;22.40;73.10
2200;DHT22;1106;48.762;9.168;2022-08-19T01:46:12;22.40;73.10
2200;DHT22;1106;48.762;9.168;2022-08-19T01:48:42;22.40;73.20
2200;DHT22;1106;48.762;9.168;2022-08-19T01:51:10;22.30;73.40
2200;DHT22;1106;48.762;9.168;2022-08-19T01:53:38;22.20;73.60
2200;DHT22;1106;48.762;9.168;2022-08-19T01:56:07;22.20;73.70
2200;DHT22;1106;48.762;9.168;2022-08-19T01:58:38;22.30;73.60
2200;DHT22;1106;48.762;9.168;2022-08-19T02:01:08;22.30;73.60
2200;DHT22;1106;48.762;9.168;2022-08-19T02:03:35;22.30;73.60
2200;DHT22;1106;48.762;9.168;2022-08-19T02:06:03;22.30;73.70
2200;DHT22;1106;48.762;9.168;2022-08-19T02:08:32;22.20;73.90
2200;DHT22;1106;48.762;9.168;2022-08-19T02:11:00;22.20;74.00
2200;DHT22;1106;48.762;9.168;2022-08-19T02:13:28;22.20;74.10
2200;DHT22;1106;48.762;9.168;2022-08-19T02:15:55;22.20;74.00
2200;DHT22;1106;48.762;9.168;2022-08-19T02:18:23;22.20;74.00
2200;DHT22;1106;48.762;9.168;2022-08-19T02:20:50;22.10;74.30
2200;DHT22;1106;48.762;9.168;2022-08-19T02:23:17;22.00;74.90
2200;DHT22;1106;48.762;9.168;2022-08-19T02:25:48;22.00;75.00
2200;DHT22;1106;48.762;9.168;2022-08-19T02:28:15;22.00;75.10
2200;DHT22;1106;48.762;9.168;2022-08-19T02:30:43;21.90;75.20
2200;DHT22;1106;48.762;9.168;2022-08-19T02:33:10;22.00;75.10
2200;DHT22;1106;48.762;9.168;2022-08-19T02:35:41;21.90;75.30
2200;DHT22;1106;48.762;9.168;2022-08-19T02:38:07;21.90;75.30
2200;DHT22;1106;48.762;9.168;2022-08-19T02:40:55;21.90;75.50
2200;DHT22;1106;48.762;9.168;2022-08-19T02:43:21;21.90;75.40
2200;DHT22;1106;48.762;9.168;2022-08-19T02:45:50;22.00;75.20
2200;DHT22;1106;48.762;9.168;2022-08-19T02:48:19;21.90;75.50
2200;DHT22;1106;48.762;9.168;2022-08-19T02:50:48;21.80;75.90
2200;DHT22;1106;48.762;9.168;2022-08-19T02:53:18;21.80;75.90
2200;DHT22;1106;48.762;9.168;2022-08-19T02:55:46;21.90;75.80
2200;DHT22;1106;48.762;9.168;2022-08-19T02:58:14;21.90;75.80
2200;DHT22;1106;48.762;9.168;2022-08-19T03:00:43;21.90;75.80
2200;DHT22;1106;48.762;9.168;2022-08-19T03:03:12;21.90;75.80
2200;DHT22;1106;48.762;9.168;2022-08-19T03:05:40;21.60;76.70
2200;DHT22;1106;48.762;9.168;2022-08-19T03:08:07;21.60;76.80
2200;DHT22;1106;48.762;9.168;2022-08-19T03:10:40;21.60;76.70
2200;DHT22;1106;48.762;9.168;2022-08-19T03:13:09;21.60;76.90
2200;DHT22;1106;48.762;9.168;2022-08-19T03:15:39;21.50;77.40
2200;DHT22;1106;48.762;9.168;2022-08-19T03:18:06;21.40;77.70
2200;DHT22;1106;48.762;9.168;2022-08-19T03:20:40;21.50;77.50
2200;DHT22;1106;48.762;9.168;2022-08-19T03:23:07;21.50;77.30
2200;DHT22;1106;48.762;9.168;2022-08-19T03:25:38;21.50;77.40
2200;DHT22;1106;48.762;9.168;2022-08-19T03:28:06;21.50;77.50
2200;DHT22;1106;48.762;9.168;2022-08-19T03:30:33;21.50;77.70
2200;DHT22;1106;48.762;9.168;2022-08-19T03:33:00;21.50;77.50
2200;DHT22;1106;48.762;9.168;2022-08-19T03:35:27;21.50;77.50
2200;DHT22;1106;48.762;9.168;2022-08-19T03:37:55;21.30;78.10
2200;DHT22;1106;48.762;9.168;2022-08-19T03:40:22;21.30;78.40
2200;DHT22;1106;48.762;9.168;2022-08-19T03:42:49;21.20;78.80
2200;DHT22;1106;48.762;9.168;2022-08-19T03:45:17;21.10;78.90
2200;DHT22;1106;48.762;9.168;2022-08-19T03:47:45;21.10;78.90
2200;DHT22;1106;48.762;9.168;2022-08-19T03:50:12;21.00;79.40
2200;DHT22;1106;48.762;9.168;2022-08-19T03:52:39;21.00;79.20
2200;DHT22;1106;48.762;9.168;2022-08-19T03:55:08;21.10;79.10
2200;DHT22;1106;48.762;9.168;2022-08-19T03:57:35;21.10;78.90
2200;DHT22;1106;48.762;9.168;2022-08-19T04:00:03;21.10;78.90
2200;DHT22;1106;48.762;9.168;2022-08-19T04:02:32;21.20;78.80
2200;DHT22;1106;48.762;9.168;2022-08-19T04:04:59;21.10;78.80
2200;DHT22;1106;48.762;9.168;2022-08-19T04:07:26;21.00;79.10
2200;DHT22;1106;48.762;9.168;2022-08-19T04:09:53;21.00;79.20
2200;DHT22;1106;48.762;9.168;2022-08-19T04:12:21;21.00;79.30
2200;DHT22;1106;48.762;9.168;2022-08-19T04:14:48;21.00;79.50
2200;DHT22;1106;48.762;9.168;2022-08-19T04:17:15;21.10;79.00
2200;DHT22;1106;48.762;9.168;2022-08-19T04:19:42;21.10;78.90
2200;DHT22;1106;48.762;9.168;2022-08-19T04:22:10;21.10;78.70
2200;DHT22;1106;48.762;9.168;2022-08-19T04:24:37;21.10;78.80
2200;DHT22;1106;48.762;9.168;2022-08-19T04:27:05;21.00;79.00
2200;DHT22;1106;48.762;9.168;2022-08-19T04:29:34;21.00;78.90
2200;DHT22;1106;48.762;9.168;2022-08-19T04:32:01;20.90;79.50
2200;DHT22;1106;48.762;9.168;2022-08-19T04:34:28;20.90;79.40
2200;DHT22;1106;48.762;9.168;2022-08-19T04:36:58;20.90;79.50
2200;DHT22;1106;48.762;9.168;2022-08-19T04:39:27;20.90;79.50
2200;DHT22;1106;48.762;9.168;2022-08-19T04:42:16;20.90;79.60
2200;DHT22;1106;48.762;9.168;2022-08-19T04:45:02;20.90;79.70
2200;DHT22;1106;48.762;9.168;2022-08-19T04:47:29;20.90;79.70
2200;DHT22;1106;48.762;9.168;2022-08-19T04:49:58;21.00;79.40
2200;DHT22;1106;48.762;9.168;2022-08-19T04:52:25;21.10;79.00
2200;DHT22;1106;48.762;9.168;2022-08-19T04:54:52;21.10;78.80
2200;DHT22;1106;48.762;9.168;2022-08-19T04:57:21;21.10;78.90
2200;DHT22;1106;48.762;9.168;2022-08-19T04:59:48;21.20;78.60
2200;DHT22;1106;48.762;9.168;2022-08-19T05:02:16;21.10;78.90
2200;DHT22;1106;48.762;9.168;2022-08-19T05:04:43;21.00;79.20
2200;DHT22;1106;48.762;9.168;2022-08-19T05:07:10;21.10;79.00
2200;DHT22;1106;48.762;9.168;2022-08-19T05:09:37;21.10;78.90
2200;DHT22;1106;48.762;9.168;2022-08-19T05:12:04;21.00;79.20
2200;DHT22;1106;48.762;9.168;2022-08-19T05:14:32;20.90;79.70
2200;DHT22;1106;48.762;9.168;2022-08-19T05:17:01;20.80;80.00
2200;DHT22;1106;48.762;9.168;2022-08-19T05:19:29;20.90;79.80
2200;DHT22;1106;48.762;9.168;2022-08-19T05:22:13;21.00;79.70
2200;DHT22;1106;48.762;9.168;2022-08-19T05:25:01;20.90;79.60
2200;DHT22;1106;48.762;9.168;2022-08-19T05:27:28;21.00;79.60
2200;DHT22;1106;48.762;9.168;2022-08-19T05:29:55;21.10;79.00
2200;DHT22;1106;48.762;9.168;2022-08-19T05:32:22;21.10;79.20
2200;DHT22;1106;48.762;9.168;2022-08-19T05:34:50;21.00;79.20
2200;DHT22;1106;48.762;9.168;2022-08-19T05:37:17;20.90;79.70
2200;DHT22;1106;48.762;9.168;2022-08-19T05:39:44;21.00;79.50
2200;DHT22;1106;48.762;9.168;2022-08-19T05:42:11;21.20;79.10
2200;DHT22;1106;48.762;9.168;2022-08-19T05:44:41;21.20;78.90
2200;DHT22;1106;48.762;9.168;2022-08-19T05:47:09;21.20;79.20
2200;DHT22;1106;48.762;9.168;2022-08-19T05:49:37;21.10;79.00
2200;DHT22;1106;48.762;9.168;2022-08-19T05:52:07;21.20;79.00
2200;DHT22;1106;48.762;9.168;2022-08-19T05:54:37;21.10;79.10
2200;DHT22;1106;48.762;9.168;2022-08-19T05:57:05;21.00;79.20
2200;DHT22;1106;48.762;9.168;2022-08-19T05:59:33;21.00;79.60
2200;DHT22;1106;48.762;9.168;2022-08-19T06:02:01;20.80;80.10
2200;DHT22;1106;48.762;9.168;2022-08-19T06:04:28;20.70;80.40
2200;DHT22;1106;48.762;9.168;2022-08-19T06:06:55;20.80;80.40
2200;DHT22;1106;48.762;9.168;2022-08-19T06:09:25;20.80;80.20
2200;DHT22;1106;48.762;9.168;2022-08-19T06:11:53;20.80;80.20
2200;DHT22;1106;48.762;9.168;2022-08-19T06:14:22;20.90;79.80
2200;DHT22;1106;48.762;9.168;2022-08-19T06:16:50;21.00;79.40
2200;DHT22;1106;48.762;9.168;2022-08-19T06:19:20;21.00;79.50
2200;DHT22;1106;48.762;9.168;2022-08-19T06:21:50;21.10;79.20
2200;DHT22;1106;48.762;9.168;2022-08-19T06:24:20;21.10;79.20
2200;DHT22;1106;48.762;9.168;2022-08-19T06:26:52;21.10;79.10
2200;DHT22;1106;48.762;9.168;2022-08-19T06:29:21;21.00;79.50
2200;DHT22;1106;48.762;9.168;2022-08-19T06:31:51;21.10;79.20
2200;DHT22;1106;48.762;9.168;2022-08-19T06:34:19;21.20;79.20
2200;DHT22;1106;48.762;9.168;2022-08-19T06:36:49;21.20;79.00
2200;DHT22;1106;48.762;9.168;2022-08-19T06:39:19;21.10;79.50
2200;DHT22;1106;48.762;9.168;2022-08-19T06:41:47;21.00;79.60
2200;DHT22;1106;48.762;9.168;2022-08-19T06:44:17;21.00;80.10
2200;DHT22;1106;48.762;9.168;2022-08-19T06:46:44;21.10;79.90
2200;DHT22;1106;48.762;9.168;2022-08-19T06:49:11;21.10;79.90
2200;DHT22;1106;48.762;9.168;2022-08-19T06:51:41;21.10;80.20
2200;DHT22;1106;48.762;9.168;2022-08-19T06:54:09;21.00;80.40
2200;DHT22;1106;48.762;9.168;2022-08-19T06:56:37;21.00;80.70
2200;DHT22;1106;48.762;9.168;2022-08-19T06:59:06;20.90;81.10
2200;DHT22;1106;48.762;9.168;2022-08-19T07:01:36;21.00;81.00
2200;DHT22;1106;48.762;9.168;2022-08-19T07:04:05;21.00;81.30
2200;DHT22;1106;48.762;9.168;2022-08-19T07:06:32;21.00;80.80
2200;DHT22;1106;48.762;9.168;2022-08-19T07:08:59;20.90;81.60
2200;DHT22;1106;48.762;9.168;2022-08-19T07:11:27;20.90;81.70
2200;DHT22;1106;48.762;9.168;2022-08-19T07:13:57;21.00;81.50
2200;DHT22;1106;48.762;9.168;2022-08-19T07:16:24;21.00;81.10
2200;DHT22;1106;48.762;9.168;2022-08-19T07:18:54;20.90;81.20
2200;DHT22;1106;48.762;9.168;2022-08-19T07:21:24;20.90;81.70
2200;DHT22;1106;48.762;9.168;2022-08-19T07:23:53;21.00;81.60
2200;DHT22;1106;48.762;9.168;2022-08-19T07:26:23;21.00;81.30
2200;DHT22;1106;48.762;9.168;2022-08-19T07:28:50;21.10;80.90
2200;DHT22;1106;48.762;9.168;2022-08-19T07:31:20;21.00;81.20
2200;DHT22;1106;48.762;9.168;2022-08-19T07:33:49;20.90;81.30
2200;DHT22;1106;48.762;9.168;2022-08-19T07:36:19;20.90;81.30
2200;DHT22;1106;48.762;9.168;2022-08-19T07:38:49;21.10;81.00
2200;DHT22;1106;48.762;9.168;2022-08-19T07:41:19;21.20;80.60
2200;DHT22;1106;48.762;9.168;2022-08-19T07:43:47;21.20;80.00
2200;DHT22;1106;48.762;9.168;2022-08-19T07:46:15;21.20;80.20
2200;DHT22;1106;48.762;9.168;2022-08-19T07:48:43;21.10;80.20
2200;DHT22;1106;48.762;9.168;2022-08-19T07:51:12;21.10;80.50
2200;DHT22;1106;48.762;9.168;2022-08-19T07:53:40;21.10;80.60
2200;DHT22;1106;48.762;9.168;2022-08-19T07:56:08;21.00;80.70
2200;DHT22;1106;48.762;9.168;2022-08-19T07:58:38;21.00;81.00
2200;DHT22;1106;48.762;9.168;2022-08-19T08:01:06;21.10;80.60
2200;DHT22;1106;48.762;9.168;2022-08-19T08:03:33;21.10;80.20
2200;DHT22;1106;48.762;9.168;2022-08-19T08:06:18;21.00;80.60
2200;DHT22;1106;48.762;9.168;2022-08-19T08:09:04;20.90;80.90
2200;DHT22;1106;48.762;9.168;2022-08-19T08:11:37;21.00;81.00
2200;DHT22;1106;48.762;9.168;2022-08-19T08:14:04;21.10;80.40
2200;DHT22;1106;48.762;9.168;2022-08-19T08:16:34;21.00;80.50
2200;DHT22;1106;48.762;9.168;2022-08-19T08:19:03;20.90;80.90
2200;DHT22;1106;48.762;9.168;2022-08-19T08:21:31;21.00;80.70
2200;DHT22;1106;48.762;9.168;2022-08-19T08:23:58;21.10;80.40
2200;DHT22;1106;48.762;9.168;2022-08-19T08:26:26;21.10;80.40
2200;DHT22;1106;48.762;9.168;2022-08-19T08:28:54;21.20;80.30
2200;DHT22;1106;48.762;9.168;2022-08-19T08:31:21;21.10;80.80
2200;DHT22;1106;48.762;9.168;2022-08-19T08:33:49;21.30;79.90
2200;DHT22;1106;48.762;9.168;2022-08-19T08:36:16;21.30;79.90
2200;DHT22;1106;48.762;9.168;2022-08-19T08:38:44;21.40;79.50
2200;DHT22;1106;48.762;9.168;2022-08-19T08:41:19;21.40;79.80
2200;DHT22;1106;48.762;9.168;2022-08-19T08:43:51;21.50;79.70
2200;DHT22;1106;48.762;9.168;2022-08-19T08:46:22;21.40;79.70
2200;DHT22;1106;48.762;9.168;2022-08-19T08:48:55;21.40;79.30
2200;DHT22;1106;48.762;9.168;2022-08-19T08:51:26;21.50;79.40
2200;DHT22;1106;48.762;9.168;2022-08-19T08:53:55;21.50;79.70
2200;DHT22;1106;48.762;9.168;2022-08-19T08:56:22;21.40;79.90
2200;DHT22;1106;48.762;9.168;2022-08-19T08:58:59;21.30;80.30
2200;DHT22;1106;48.762;9.168;2022-08-19T09:01:27;21.30;80.60
2200;DHT22;1106;48.762;9.168;2022-08-19T09:03:55;21.50;80.10
2200;DHT22;1106;48.762;9.168;2022-08-19T09:06:29;21.60;79.60
2200;DHT22;1106;48.762;9.168;2022-08-19T09:09:03;21.60;79.80
2200;DHT22;1106;48.762;9.168;2022-08-19T09:14:32;21.60;79.90
2200;DHT22;1106;48.762;9.168;2022-08-19T09:17:01;21.60;80.10
2200;DHT22;1106;48.762;9.168;2022-08-19T09:19:29;21.60;80.30
2200;DHT22;1106;48.762;9.168;2022-08-19T09:21:56;21.70;80.00
2200;DHT22;1106;48.762;9.168;2022-08-19T09:24:23;21.90;79.50
2200;DHT22;1106;48.762;9.168;2022-08-19T09:26:50;22.00;79.10
2200;DHT22;1106;48.762;9.168;2022-08-19T09:29:17;22.10;78.80
2200;DHT22;1106;48.762;9.168;2022-08-19T09:31:45;22.20;78.50
2200;DHT22;1106;48.762;9.168;2022-08-19T09:34:12;22.20;78.40
2200;DHT22;1106;48.762;9.168;2022-08-19T09:36:40;22.30;77.90
2200;DHT22;1106;48.762;9.168;2022-08-19T09:39:07;22.40;77.50
2200;DHT22;1106;48.762;9.168;2022-08-19T09:41:34;22.40;77.60
2200;DHT22;1106;48.762;9.168;2022-08-19T09:44:01;22.50;77.00
2200;DHT22;1106;48.762;9.168;2022-08-19T09:46:29;22.50;77.10
2200;DHT22;1106;48.762;9.168;2022-08-19T09:49:00;22.50;77.40
2200;DHT22;1106;48.762;9.168;2022-08-19T09:51:27;22.60;77.10
2200;DHT22;1106;48.762;9.168;2022-08-19T09:53:59;22.50;77.20
2200;DHT22;1106;48.762;9.168;2022-08-19T09:56:27;22.60;77.10
2200;DHT22;1106;48.762;9.168;2022-08-19T09:58:54;22.60;76.90
2200;DHT22;1106;48.762;9.168;2022-08-19T10:01:23;22.70;76.50
2200;DHT22;1106;48.762;9.168;2022-08-19T10:03:52;22.70;76.90
2200;DHT22;1106;48.762;9.168;2022-08-19T10:06:22;22.70;76.70
2200;DHT22;1106;48.762;9.168;2022-08-19T10:08:50;22.70;76.50
2200;DHT22;1106;48.762;9.168;2022-08-19T10:11:19;22.70;76.40
2200;DHT22;1106;48.762;9.168;2022-08-19T10:13:46;22.90;76.20
2200;DHT22;1106;48.762;9.168;2022-08-19T10:16:15;23.00;75.70
2200;DHT22;1106;48.762;9.168;2022-08-19T10:18:43;23.00;75.70
2200;DHT22;1106;48.762;9.168;2022-08-19T10:21:13;23.10;75.00
2200;DHT22;1106;48.762;9.168;2022-08-19T10:23:44;23.10;75.00
2200;DHT22;1106;48.762;9.168;2022-08-19T10:26:13;23.00;75.00
2200;DHT22;1106;48.762;9.168;2022-08-19T10:28:41;23.10;75.00
2200;DHT22;1106;48.762;9.168;2022-08-19T10:31:10;23.10;74.80
2200;DHT22;1106;48.762;9.168;2022-08-19T10:33:38;23.20;74.20
2200;DHT22;1106;48.762;9.168;2022-08-19T10:36:08;23.20;74.70
2200;DHT22;1106;48.762;9.168;2022-08-19T10:38:36;23.00;74.80
2200;DHT22;1106;48.762;9.168;2022-08-19T10:41:10;23.00;75.30
2200;DHT22;1106;48.762;9.168;2022-08-19T10:43:37;23.10;75.00
2200;DHT22;1106;48.762;9.168;2022-08-19T10:46:05;23.20;74.60
2200;DHT22;1106;48.762;9.168;2022-08-19T10:48:32;23.20;74.50
2200;DHT22;1106;48.762;9.168;2022-08-19T10:51:00;23.00;75.00
2200;DHT22;1106;48.762;9.168;2022-08-19T10:53:45;23.00;75.00
2200;DHT22;1106;48.762;9.168;2022-08-19T10:56:14;23.10;75.00
2200;DHT22;1106;48.762;9.168;2022-08-19T10:58:58;23.40;74.30
2200;DHT22;1106;48.762;9.168;2022-08-19T11:01:25;23.40;73.20
2200;DHT22;1106;48.762;9.168;2022-08-19T11:03:52;23.10;73.60
2200;DHT22;1106;48.762;9.168;2022-08-19T11:06:19;23.00;74.00
2200;DHT22;1106;48.762;9.168;2022-08-19T11:08:46;23.10;73.70
2200;DHT22;1106;48.762;9.168;2022-08-19T11:11:15;23.10;73.90
2200;DHT22;1106;48.762;9.168;2022-08-19T11:13:42;23.20;73.40
2200;DHT22;1106;48.762;9.168;2022-08-19T11:16:11;23.30;73.20
2200;DHT22;1106;48.762;9.168;2022-08-19T11:18:41;23.30;72.60
2200;DHT22;1106;48.762;9.168;2022-08-19T11:21:12;23.40;72.80
2200;DHT22;1106;48.762;9.168;2022-08-19T11:23:40;23.60;72.00
2200;DHT22;1106;48.762;9.168;2022-08-19T11:26:07;23.70;71.60
2200;DHT22;1106;48.762;9.168;2022-08-19T11:28:36;23.80;71.40
2200;DHT22;1106;48.762;9.168;2022-08-19T11:31:04;24.00;70.90
2200;DHT22;1106;48.762;9.168;2022-08-19T11:33:31;24.20;70.20
2200;DHT22;1106;48.762;9.168;2022-08-19T11:35:59;24.30;69.90
2200;DHT22;1106;48.762;9.168;2022-08-19T11:38:28;24.50;69.60
2200;DHT22;1106;48.762;9.168;2022-08-19T11:40:57;24.60;68.80
2200;DHT22;1106;48.762;9.168;2022-08-19T11:43:24;24.50;69.10
2200;DHT22;1106;48.762;9.168;2022-08-19T11:45:54;24.40;69.00
2200;DHT22;1106;48.762;9.168;2022-08-19T11:48:22;24.40;68.80
2200;DHT22;1106;48.762;9.168;2022-08-19T11:50:49;24.50;68.70
2200;DHT22;1106;48.762;9.168;2022-08-19T11:53:16;24.60;67.80
2200;DHT22;1106;48.762;9.168;2022-08-19T11:55:45;24.50;68.20
2200;DHT22;1106;48.762;9.168;2022-08-19T11:58:12;24.60;68.20
2200;DHT22;1106;48.762;9.168;2022-08-19T12:00:39;24.70;67.80
2200;DHT22;1106;48.762;9.168;2022-08-19T12:03:08;24.70;67.70
2200;DHT22;1106;48.762;9.168;2022-08-19T12:05:36;24.70;67.10
2200;DHT22;1106;48.762;9.168;2022-08-19T12:08:03;24.60;67.40
2200;DHT22;1106;48.762;9.168;2022-08-19T12:10:30;24.80;66.80
2200;DHT22;1106;48.762;9.168;2022-08-19T12:12:58;24.70;66.90
2200;DHT22;1106;48.762;9.168;2022-08-19T12:15:25;24.60;67.30
2200;DHT22;1106;48.762;9.168;2022-08-19T12:17:53;24.50;67.60
2200;DHT22;1106;48.762;9.168;2022-08-19T12:20:24;24.60;67.30
2200;DHT22;1106;48.762;9.168;2022-08-19T12:22:51;24.70;67.30
2200;DHT22;1106;48.762;9.168;2022-08-19T12:25:18;24.80;67.10
2200;DHT22;1106;48.762;9.168;2022-08-19T12:27:46;24.80;66.70
2200;DHT22;1106;48.762;9.168;2022-08-19T12:30:13;24.90;66.40
2200;DHT22;1106;48.762;9.168;2022-08-19T12:32:40;25.00;66.30
2200;DHT22;1106;48.762;9.168;2022-08-19T12:35:08;24.90;66.30
2200;DHT22;1106;48.762;9.168;2022-08-19T12:37:39;24.90;66.40
2200;DHT22;1106;48.762;9.168;2022-08-19T12:40:10;24.80;66.90
2200;DHT22;1106;48.762;9.168;2022-08-19T12:42:38;24.80;66.90
2200;DHT22;1106;48.762;9.168;2022-08-19T12:45:09;24.60;68.20
2200;DHT22;1106;48.762;9.168;2022-08-19T12:47:36;24.60;68.90
2200;DHT22;1106;48.762;9.168;2022-08-19T12:50:05;24.60;69.50
2200;DHT22;1106;48.762;9.168;2022-08-19T12:52:34;24.70;69.80
2200;DHT22;1106;48.762;9.168;2022-08-19T12:55:06;24.80;69.70
2200;DHT22;1106;48.762;9.168;2022-08-19T12:57:33;25.00;69.60
2200;DHT22;1106;48.762;9.168;2022-08-19T13:00:04;25.00;70.00
2200;DHT22;1106;48.762;9.168;2022-08-19T13:02:34;25.10;70.20
2200;DHT22;1106;48.762;9.168;2022-08-19T13:05:02;25.30;70.10
2200;DHT22;1106;48.762;9.168;2022-08-19T13:07:31;25.50;69.90
2200;DHT22;1106;48.762;9.168;2022-08-19T13:09:57;25.60;69.40
2200;DHT22;1106;48.762;9.168;2022-08-19T13:12:26;25.70;69.40
2200;DHT22;1106;48.762;9.168;2022-08-19T13:14:54;25.70;69.60
2200;DHT22;1106;48.762;9.168;2022-08-19T13:17:21;25.50;70.20
2200;DHT22;1106;48.762;9.168;2022-08-19T13:19:48;25.40;70.90
2200;DHT22;1106;48.762;9.168;2022-08-19T13:22:16;25.40;71.50
2200;DHT22;1106;48.762;9.168;2022-08-19T13:24:43;25.30;72.50
2200;DHT22;1106;48.762;9.168;2022-08-19T13:27:10;25.20;73.00
2200;DHT22;1106;48.762;9.168;2022-08-19T13:29:39;25.10;73.40
2200;DHT22;1106;48.762;9.168;2022-08-19T13:32:23;25.20;73.50
2200;DHT22;1106;48.762;9.168;2022-08-19T13:35:08;25.10;74.10
2200;DHT22;1106;48.762;9.168;2022-08-19T13:37:36;24.90;74.80
2200;DHT22;1106;48.762;9.168;2022-08-19T13:40:10;24.90;75.00
2200;DHT22;1106;48.762;9.168;2022-08-19T13:42:38;24.90;75.40
2200;DHT22;1106;48.762;9.168;2022-08-19T13:45:10;24.80;75.90
2200;DHT22;1106;48.762;9.168;2022-08-19T13:47:38;24.60;76.30
2200;DHT22;1106;48.762;9.168;2022-08-19T13:50:13;24.50;76.90
2200;DHT22;1106;48.762;9.168;2022-08-19T13:52:41;24.40;77.10
2200;DHT22;1106;48.762;9.168;2022-08-19T13:55:10;24.50;77.10
2200;DHT22;1106;48.762;9.168;2022-08-19T13:57:37;24.40;77.10
2200;DHT22;1106;48.762;9.168;2022-08-19T14:00:09;24.30;77.70
2200;DHT22;1106;48.762;9.168;2022-08-19T14:02:36;24.20;78.30
2200;DHT22;1106;48.762;9.168;2022-08-19T14:05:06;24.10;78.80
2200;DHT22;1106;48.762;9.168;2022-08-19T14:07:33;24.00;79.40
2200;DHT22;1106;48.762;9.168;2022-08-19T14:10:00;24.00;79.70
2200;DHT22;1106;48.762;9.168;2022-08-19T14:12:27;23.90;80.20
2200;DHT22;1106;48.762;9.168;2022-08-19T14:14:54;23.80;80.50
2200;DHT22;1106;48.762;9.168;2022-08-19T14:17:23;23.80;80.40
2200;DHT22;1106;48.762;9.168;2022-08-19T14:19:55;23.80;80.70
2200;DHT22;1106;48.762;9.168;2022-08-19T14:22:22;23.90;80.40
2200;DHT22;1106;48.762;9.168;2022-08-19T14:24:49;24.10;79.70
2200;DHT22;1106;48.762;9.168;2022-08-19T14:27:16;24.20;79.20
2200;DHT22;1106;48.762;9.168;2022-08-19T14:29:43;24.30;78.50
2200;DHT22;1106;48.762;9.168;2022-08-19T14:32:11;24.30;77.90
2200;DHT22;1106;48.762;9.168;2022-08-19T14:34:39;24.50;77.40
2200;DHT22;1106;48.762;9.168;2022-08-19T14:37:06;24.60;76.90
2200;DHT22;1106;48.762;9.168;2022-08-19T14:39:34;24.60;76.50
2200;DHT22;1106;48.762;9.168;2022-08-19T14:42:06;24.80;76.10
2200;DHT22;1106;48.762;9.168;2022-08-19T14:44:34;24.80;76.10
2200;DHT22;1106;48.762;9.168;2022-08-19T14:47:02;25.00;75.70
2200;DHT22;1106;48.762;9.168;2022-08-19T14:49:29;25.10;75.20
2200;DHT22;1106;48.762;9.168;2022-08-19T14:51:57;25.10;75.40
2200;DHT22;1106;48.762;9.168;2022-08-19T14:54:24;25.00;75.10
2200;DHT22;1106;48.762;9.168;2022-08-19T14:56:51;25.00;75.10
2200;DHT22;1106;48.762;9.168;2022-08-19T14:59:19;25.00;74.70
2200;DHT22;1106;48.762;9.168;2022-08-19T15:01:46;25.00;75.10
2200;DHT22;1106;48.762;9.168;2022-08-19T15:04:13;24.90;75.00
2200;DHT22;1106;48.762;9.168;2022-08-19T15:06:40;24.90;74.70
2200;DHT22;1106;48.762;9.168;2022-08-19T15:09:09;24.90;74.60
2200;DHT22;1106;48.762;9.168;2022-08-19T15:11:36;25.00;74.00
2200;DHT22;1106;48.762;9.168;2022-08-19T15:14:04;25.20;73.70
2200;DHT22;1106;48.762;9.168;2022-08-19T15:16:32;25.30;72.90
2200;DHT22;1106;48.762;9.168;2022-08-19T15:18:59;25.40;72.90
2200;DHT22;1106;48.762;9.168;2022-08-19T15:21:27;25.60;72.30
2200;DHT22;1106;48.762;9.168;2022-08-19T15:23:56;25.80;71.60
2200;DHT22;1106;48.762;9.168;2022-08-19T15:26:24;26.10;71.00
2200;DHT22;1106;48.762;9.168;2022-08-19T15:28:53;26.30;70.20
2200;DHT22;1106;48.762;9.168;2022-08-19T15:31:21;26.50;69.80
2200;DHT22;1106;48.762;9.168;2022-08-19T15:33:49;26.50;69.30
2200;DHT22;1106;48.762;9.168;2022-08-19T15:36:16;26.40;69.50
2200;DHT22;1106;48.762;9.168;2022-08-19T15:38:43;26.50;69.70
2200;DHT22;1106;48.762;9.168;2022-08-19T15:41:17;26.60;69.10
2200;DHT22;1106;48.762;9.168;2022-08-19T15:43:58;26.40;69.30
2200;DHT22;1106;48.762;9.168;2022-08-19T15:46:28;26.30;70.00
2200;DHT22;1106;48.762;9.168;2022-08-19T15:48:56;26.20;70.50
2200;DHT22;1106;48.762;9.168;2022-08-19T15:51:25;26.20;70.80
2200;DHT22;1106;48.762;9.168;2022-08-19T15:53:52;26.20;71.20
2200;DHT22;1106;48.762;9.168;2022-08-19T15:56:19;26.20;70.80
2200;DHT22;1106;48.762;9.168;2022-08-19T15:58:46;26.50;70.40
2200;DHT22;1106;48.762;9.168;2022-08-19T16:01:37;26.90;69.50
2200;DHT22;1106;48.762;9.168;2022-08-19T16:04:22;27.10;68.80
2200;DHT22;1106;48.762;9.168;2022-08-19T16:07:06;27.50;66.90
2200;DHT22;1106;48.762;9.168;2022-08-19T16:09:34;28.00;65.00
2200;DHT22;1106;48.762;9.168;2022-08-19T16:12:04;28.40;64.10
2200;DHT22;1106;48.762;9.168;2022-08-19T16:14:33;28.70;63.00
2200;DHT22;1106;48.762;9.168;2022-08-19T16:17:04;28.90;62.70